createdAt,value
2023-04-15T00:02:20.383Z,76.39
2023-04-15T00:04:50.720Z,76.90
2023-04-15T00:07:19.262Z,77.05
2023-04-15T00:09:47.774Z,76.58
2023-04-15T00:12:20.028Z,76.59
2023-04-15T00:14:48.673Z,76.28
2023-04-15T00:17:18.106Z,76.33
2023-04-15T00:19:54.864Z,75.98
2023-04-15T00:22:23.334Z,76.11
2023-04-15T00:24:53.016Z,76.73
2023-04-15T00:27:21.541Z,77.59
2023-04-15T00:29:50.262Z,77.26
2023-04-15T00:32:18.961Z,76.95
2023-04-15T00:34:47.510Z,77.19
2023-04-15T00:37:18.219Z,77.05
2023-04-15T00:39:47.070Z,77.09
2023-04-15T00:42:15.933Z,78.04
2023-04-15T00:44:44.497Z,78.00
2023-04-15T00:47:13.887Z,77.60
2023-04-15T00:49:45.318Z,77.49
2023-04-15T00:52:13.935Z,77.29
2023-04-15T00:54:42.518Z,77.10
2023-04-15T00:57:14.150Z,76.86
2023-04-15T00:59:43.292Z,76.63
2023-04-15T01:02:12.174Z,76.66
2023-04-15T01:04:41.541Z,76.37
2023-04-15T01:07:11.246Z,76.17
2023-04-15T01:09:41.007Z,77.70
2023-04-15T01:12:13.187Z,78.69
2023-04-15T01:14:42.202Z,79.50
2023-04-15T01:17:13.879Z,79.77
2023-04-15T01:19:42.771Z,79.65
2023-04-15T01:22:11.574Z,79.22
2023-04-15T01:24:41.507Z,80.20
2023-04-15T01:27:10.703Z,79.96
2023-04-15T01:29:39.864Z,80.46
2023-04-15T01:32:08.361Z,81.08
2023-04-15T01:34:37.190Z,81.11
2023-04-15T01:37:08.741Z,81.06
2023-04-15T01:39:39.722Z,80.32
2023-04-15T01:42:08.646Z,81.05
2023-04-15T01:44:37.631Z,80.82
2023-04-15T01:47:07.151Z,80.16
2023-04-15T01:49:36.390Z,80.17
2023-04-15T01:52:04.897Z,80.36
2023-04-15T01:54:33.521Z,81.13
2023-04-15T01:57:02.613Z,80.96
2023-04-15T01:59:32.389Z,81.25
2023-04-15T02:02:01.642Z,81.28
2023-04-15T02:04:30.372Z,81.59
2023-04-15T02:07:01.840Z,82.08
2023-04-15T02:09:31.173Z,81.60
2023-04-15T02:12:01.027Z,81.01
2023-04-15T02:14:32.502Z,81.58
2023-04-15T02:17:07.419Z,81.74
2023-04-15T02:19:36.148Z,81.70
2023-04-15T02:22:05.250Z,82.34
2023-04-15T02:24:33.921Z,82.36
2023-04-15T02:27:03.566Z,81.99
2023-04-15T02:29:33.270Z,82.06
2023-04-15T02:32:02.829Z,81.60
2023-04-15T02:34:31.902Z,81.52
2023-04-15T02:37:04.029Z,81.86
2023-04-15T02:39:32.980Z,81.74
2023-04-15T02:42:01.591Z,82.03
2023-04-15T02:44:31.417Z,82.14
2023-04-15T02:47:01.104Z,82.74
2023-04-15T02:49:31.159Z,83.56
2023-04-15T02:52:00.296Z,83.35
2023-04-15T02:54:29.118Z,83.37
2023-04-15T02:56:58.497Z,83.79
2023-04-15T02:59:29.896Z,83.93
2023-04-15T03:02:01.583Z,83.22
2023-04-15T03:04:31.066Z,82.90
2023-04-15T03:07:02.011Z,82.57
2023-04-15T03:09:30.623Z,82.76
2023-04-15T03:12:00.252Z,83.74
2023-04-15T03:14:28.824Z,84.15
2023-04-15T03:16:59.476Z,84.26
2023-04-15T03:19:28.018Z,84.53
2023-04-15T03:21:59.748Z,84.75
2023-04-15T03:24:29.950Z,84.49
2023-04-15T03:27:01.984Z,83.80
2023-04-15T03:29:33.031Z,83.56
2023-04-15T03:32:02.022Z,83.73
2023-04-15T03:34:33.627Z,83.84
2023-04-15T03:37:02.443Z,83.06
2023-04-15T03:39:35.564Z,82.93
2023-04-15T03:42:04.145Z,83.20
2023-04-15T03:44:38.046Z,82.78
2023-04-15T03:47:06.920Z,82.40
2023-04-15T03:49:36.313Z,82.12
2023-04-15T03:52:04.950Z,82.51
2023-04-15T03:54:34.013Z,82.21
2023-04-15T03:57:03.661Z,82.04
2023-04-15T03:59:32.432Z,81.79
2023-04-15T04:02:01.132Z,81.93
2023-04-15T04:04:29.915Z,82.38
2023-04-15T04:06:58.564Z,82.78
2023-04-15T04:09:28.054Z,83.84
2023-04-15T04:11:59.068Z,84.00
2023-04-15T04:14:30.010Z,83.58
2023-04-15T04:16:59.446Z,83.28
2023-04-15T04:19:30.192Z,83.80
2023-04-15T04:22:03.199Z,84.44
2023-04-15T04:24:34.315Z,84.79
2023-04-15T04:27:05.759Z,86.33
2023-04-15T04:29:34.438Z,87.17
2023-04-15T04:32:03.126Z,87.40
2023-04-15T04:34:32.795Z,87.51
2023-04-15T04:37:06.206Z,86.74
2023-04-15T04:39:34.974Z,86.83
2023-04-15T04:42:08.787Z,87.70
2023-04-15T04:44:40.508Z,87.93
2023-04-15T04:47:08.974Z,88.70
2023-04-15T04:49:42.253Z,88.50
2023-04-15T04:52:10.850Z,87.77
2023-04-15T04:54:42.544Z,87.29
2023-04-15T04:57:14.140Z,86.57
2023-04-15T04:59:43.054Z,86.35
2023-04-15T05:02:11.654Z,86.19
2023-04-15T05:04:42.338Z,85.58
2023-04-15T05:07:11.104Z,84.08
2023-04-15T05:09:39.647Z,83.81
2023-04-15T05:12:09.551Z,83.87
2023-04-15T05:14:38.078Z,83.35
2023-04-15T05:17:06.866Z,83.21
2023-04-15T05:19:35.574Z,83.22
2023-04-15T05:22:04.423Z,83.14
2023-04-15T05:24:32.942Z,83.18
2023-04-15T05:27:02.318Z,83.02
2023-04-15T05:29:30.856Z,83.23
2023-04-15T05:31:59.409Z,82.95
2023-04-15T05:34:27.894Z,82.45
2023-04-15T05:36:56.474Z,82.39
2023-04-15T05:39:25.084Z,83.39
2023-04-15T05:41:53.827Z,83.27
2023-04-15T05:44:24.579Z,82.77
2023-04-15T05:46:55.398Z,81.93
2023-04-15T05:49:28.506Z,81.17
2023-04-15T05:52:00.879Z,80.52
2023-04-15T05:54:34.197Z,79.94
2023-04-15T05:57:05.070Z,79.80
2023-04-15T05:59:33.620Z,79.66
2023-04-15T06:02:02.210Z,79.02
2023-04-15T06:04:31.252Z,78.78
2023-04-15T06:06:59.767Z,78.64
2023-04-15T06:09:29.223Z,78.76
2023-04-15T06:12:01.801Z,78.52
2023-04-15T06:14:30.430Z,77.95
2023-04-15T06:17:02.157Z,77.83
2023-04-15T06:19:30.812Z,77.59
2023-04-15T06:21:59.409Z,77.82
2023-04-15T06:24:28.122Z,77.84
2023-04-15T06:27:02.285Z,77.83
2023-04-15T06:29:35.446Z,77.96
2023-04-15T06:32:06.050Z,78.16
2023-04-15T06:34:34.629Z,78.71
2023-04-15T06:37:05.699Z,79.44
2023-04-15T06:39:37.977Z,78.80
2023-04-15T06:42:09.570Z,78.13
2023-04-15T06:44:38.796Z,77.38
2023-04-15T06:47:10.015Z,76.65
2023-04-15T06:49:40.584Z,75.65
2023-04-15T06:52:10.549Z,75.83
2023-04-15T06:54:42.281Z,78.21
2023-04-15T06:57:13.241Z,75.52
2023-04-15T06:59:43.190Z,77.84
2023-04-15T07:02:14.904Z,74.69
2023-04-15T07:04:43.607Z,81.84
2023-04-15T07:07:12.536Z,82.98
2023-04-15T07:09:41.192Z,79.93
2023-04-15T07:12:09.696Z,79.32
2023-04-15T07:14:40.588Z,79.16
2023-04-15T07:17:12.542Z,79.80
2023-04-15T07:19:41.162Z,83.68
2023-04-15T07:22:10.182Z,82.51
2023-04-15T07:24:38.763Z,82.18
2023-04-15T07:27:07.642Z,82.62
2023-04-15T07:29:38.547Z,81.44
2023-04-15T07:32:11.510Z,77.55
2023-04-15T07:34:43.311Z,77.85
2023-04-15T07:37:14.906Z,77.53
2023-04-15T07:39:46.292Z,76.70
2023-04-15T07:42:15.456Z,75.76
2023-04-15T07:44:44.003Z,74.65
2023-04-15T07:47:12.527Z,74.58
2023-04-15T07:49:43.603Z,77.02
2023-04-15T07:52:12.538Z,75.54
2023-04-15T07:54:40.946Z,74.80
2023-04-15T07:57:09.626Z,72.11
2023-04-15T07:59:38.052Z,71.81
2023-04-15T08:02:06.778Z,71.99
2023-04-15T08:04:35.386Z,71.24
2023-04-15T08:07:05.099Z,68.78
2023-04-15T08:09:33.505Z,67.33
2023-04-15T08:12:02.439Z,66.10
2023-04-15T08:14:31.214Z,67.21
2023-04-15T08:16:59.605Z,70.39
2023-04-15T08:19:31.200Z,70.14
2023-04-15T08:21:59.772Z,64.38
2023-04-15T08:24:28.123Z,64.99
2023-04-15T08:26:57.844Z,64.76
2023-04-15T08:29:26.308Z,63.78
2023-04-15T08:31:54.965Z,63.44
2023-04-15T08:34:24.647Z,62.49
2023-04-15T08:36:53.234Z,62.47
2023-04-15T08:39:21.696Z,61.61
2023-04-15T08:42:16.673Z,59.12
2023-04-15T08:44:49.084Z,58.85
2023-04-15T08:47:20.947Z,56.07
2023-04-15T08:49:54.041Z,55.91
2023-04-15T08:52:22.780Z,53.78
2023-04-15T08:54:53.179Z,53.28
2023-04-15T08:57:21.980Z,53.62
2023-04-15T08:59:50.813Z,51.92
2023-04-15T09:02:19.692Z,51.39
2023-04-15T09:04:48.441Z,51.03
2023-04-15T09:07:17.664Z,51.45
2023-04-15T09:09:46.318Z,49.64
2023-04-15T09:12:14.872Z,48.38
2023-04-15T09:14:48.401Z,48.34
2023-04-15T09:17:21.276Z,46.79
2023-04-15T09:19:49.808Z,47.80
2023-04-15T09:22:22.491Z,48.57
2023-04-15T09:24:50.858Z,46.43
2023-04-15T09:27:19.477Z,44.58
2023-04-15T09:29:50.858Z,44.82
2023-04-15T09:32:24.848Z,42.66
2023-04-15T09:34:55.639Z,42.11
2023-04-15T09:37:36.429Z,42.88
2023-04-15T09:40:05.644Z,41.32
2023-04-15T09:42:34.177Z,41.77
2023-04-15T09:45:11.793Z,42.05
2023-04-15T09:47:40.255Z,42.19
2023-04-15T09:50:12.180Z,43.08
2023-04-15T09:52:44.908Z,43.81
2023-04-15T09:55:14.266Z,43.37
2023-04-15T09:57:44.540Z,42.00
2023-04-15T10:00:14.252Z,40.89
2023-04-15T10:02:44.052Z,41.39
2023-04-15T10:05:15.880Z,42.65
2023-04-15T10:07:45.968Z,43.34
2023-04-15T10:10:15.193Z,43.24
2023-04-15T10:12:44.406Z,43.42
2023-04-15T10:15:19.631Z,42.83
2023-04-15T10:17:50.360Z,43.45
2023-04-15T10:20:23.489Z,43.71
2023-04-15T10:22:53.538Z,43.11
2023-04-15T10:25:22.893Z,42.05
2023-04-15T10:27:54.535Z,42.42
2023-04-15T10:30:23.559Z,42.64
2023-04-15T10:32:56.718Z,42.17
2023-04-15T10:35:30.849Z,41.91
2023-04-15T10:38:03.874Z,41.54
2023-04-15T10:40:37.881Z,42.28
2023-04-15T10:43:07.081Z,42.75
2023-04-15T10:45:37.840Z,42.83
2023-04-15T10:48:09.086Z,42.70
2023-04-15T10:50:37.939Z,42.69
2023-04-15T10:53:06.467Z,42.74
2023-04-15T10:55:35.571Z,42.99
2023-04-15T10:58:04.170Z,42.38
2023-04-15T11:00:35.391Z,40.43
2023-04-15T11:03:09.264Z,39.61
2023-04-15T11:05:54.119Z,38.64
2023-04-15T11:08:59.710Z,38.78
2023-04-15T11:12:07.802Z,38.79
2023-04-15T11:14:47.752Z,39.24
2023-04-15T11:17:29.067Z,39.83
2023-04-15T11:20:05.221Z,39.80
2023-04-15T11:22:33.766Z,37.53
2023-04-15T11:25:02.300Z,36.65
2023-04-15T11:27:33.518Z,36.94
2023-04-15T11:30:02.201Z,36.86
2023-04-15T11:32:30.771Z,36.53
2023-04-15T11:35:01.066Z,36.40
2023-04-15T11:37:30.659Z,36.70
2023-04-15T11:39:59.262Z,36.94
2023-04-15T11:42:33.708Z,36.66
2023-04-15T11:45:14.381Z,37.14
2023-04-15T11:47:43.761Z,36.96
2023-04-15T11:50:20.493Z,35.52
2023-04-15T11:52:57.311Z,35.64
2023-04-15T11:55:26.511Z,35.04
2023-04-15T11:58:34.623Z,35.11
2023-04-15T12:01:03.237Z,34.99
2023-04-15T12:03:43.495Z,34.90
2023-04-15T12:06:19.528Z,34.94
2023-04-15T12:08:52.901Z,34.99
2023-04-15T12:11:27.322Z,34.74
2023-04-15T12:14:19.848Z,34.50
2023-04-15T12:16:52.692Z,34.79
2023-04-15T12:19:29.589Z,36.08
2023-04-15T12:22:01.531Z,35.64
2023-04-15T12:24:34.671Z,35.40
2023-04-15T12:27:08.246Z,35.78
2023-04-15T12:29:38.855Z,35.43
2023-04-15T12:32:16.797Z,35.37
2023-04-15T12:34:51.711Z,35.35
2023-04-15T12:37:23.381Z,35.68
2023-04-15T12:39:52.541Z,36.23
2023-04-15T12:42:24.207Z,36.61
2023-04-15T12:44:52.657Z,36.60
2023-04-15T12:47:23.945Z,36.48
2023-04-15T12:49:52.467Z,36.53
2023-04-15T12:52:20.988Z,36.98
2023-04-15T12:54:49.519Z,36.86
2023-04-15T12:57:18.112Z,35.66
2023-04-15T12:59:46.724Z,35.80
2023-04-15T13:02:15.921Z,36.23
2023-04-15T13:04:44.512Z,34.33
2023-04-15T13:07:14.308Z,32.33
2023-04-15T13:09:45.893Z,30.49
2023-04-15T13:12:15.560Z,29.32
2023-04-15T13:14:47.341Z,28.35
2023-04-15T13:17:20.609Z,28.50
2023-04-15T13:19:49.151Z,28.00
2023-04-15T13:22:17.804Z,26.71
2023-04-15T13:24:46.446Z,27.12
2023-04-15T13:27:15.092Z,29.81
2023-04-15T13:29:43.764Z,32.67
2023-04-15T13:32:12.284Z,33.81
2023-04-15T13:34:41.009Z,34.96
2023-04-15T13:37:10.104Z,36.19
2023-04-15T13:39:38.597Z,36.47
2023-04-15T13:42:09.436Z,36.43
2023-04-15T13:44:38.645Z,36.03
2023-04-15T13:47:09.974Z,35.77
2023-04-15T13:49:40.662Z,34.78
2023-04-15T13:52:09.160Z,31.70
2023-04-15T13:54:38.228Z,31.24
2023-04-15T13:57:08.198Z,30.70
2023-04-15T13:59:38.828Z,30.46
2023-04-15T14:02:08.136Z,30.47
2023-04-15T14:04:36.793Z,30.14
2023-04-15T14:07:06.572Z,30.31
2023-04-15T14:09:35.680Z,31.77
2023-04-15T14:12:04.518Z,32.57
2023-04-15T14:14:33.161Z,33.20
2023-04-15T14:17:06.122Z,33.35
2023-04-15T14:19:35.553Z,33.52
2023-04-15T14:22:04.043Z,33.82
2023-04-15T14:24:32.630Z,33.84
2023-04-15T14:27:02.335Z,34.01
2023-04-15T14:29:33.310Z,34.35
2023-04-15T14:32:10.900Z,34.64
2023-04-15T14:34:44.429Z,35.03
2023-04-15T14:37:12.938Z,34.91
2023-04-15T14:39:41.521Z,35.33
2023-04-15T14:42:10.045Z,35.38
2023-04-15T14:44:38.649Z,35.33
2023-04-15T14:47:07.266Z,35.42
2023-04-15T14:49:36.004Z,35.73
2023-04-15T14:52:04.947Z,35.58
2023-04-15T14:54:33.476Z,35.42
2023-04-15T14:57:02.347Z,35.18
2023-04-15T14:59:32.961Z,35.32
2023-04-15T15:02:01.632Z,35.90
2023-04-15T15:04:30.786Z,36.10
2023-04-15T15:07:00.061Z,36.14
2023-04-15T15:09:29.296Z,35.82
2023-04-15T15:11:58.560Z,36.16
2023-04-15T15:14:28.368Z,35.89
2023-04-15T15:16:56.862Z,36.20
2023-04-15T15:19:25.571Z,37.40
2023-04-15T15:21:54.125Z,41.94
2023-04-15T15:24:25.482Z,45.98
2023-04-15T15:26:53.963Z,48.83
2023-04-15T15:29:25.734Z,51.06
2023-04-15T15:31:54.240Z,53.06
2023-04-15T15:34:26.097Z,53.59
2023-04-15T15:36:55.597Z,54.38
2023-04-15T15:39:24.406Z,56.53
2023-04-15T15:41:55.989Z,57.48
2023-04-15T15:44:24.585Z,58.94
2023-04-15T15:46:53.154Z,59.54
2023-04-15T15:49:26.140Z,58.56
2023-04-15T15:51:57.748Z,57.86
2023-04-15T15:54:29.426Z,53.47
2023-04-15T15:56:58.849Z,53.51
2023-04-15T15:59:27.500Z,53.89
2023-04-15T16:01:56.827Z,53.31
2023-04-15T16:04:27.153Z,52.32
2023-04-15T16:06:55.718Z,51.55
2023-04-15T16:09:26.215Z,51.65
2023-04-15T16:11:54.765Z,49.95
2023-04-15T16:14:26.451Z,49.98
2023-04-15T16:16:55.035Z,50.27
2023-04-15T16:19:23.694Z,49.75
2023-04-15T16:21:52.643Z,47.04
2023-04-15T16:24:26.090Z,47.50
2023-04-15T16:26:54.554Z,48.00
2023-04-15T16:29:26.451Z,47.40
2023-04-15T16:31:56.017Z,47.17
2023-04-15T16:34:24.672Z,47.12
2023-04-15T16:36:53.421Z,46.47
2023-04-15T16:39:24.435Z,47.02
2023-04-15T16:41:53.891Z,47.01
2023-04-15T16:44:27.170Z,47.85
2023-04-15T16:46:56.022Z,47.71
2023-04-15T16:49:35.180Z,47.69
2023-04-15T16:52:03.912Z,47.89
2023-04-15T16:54:35.044Z,48.08
2023-04-15T16:57:06.353Z,48.34
2023-04-15T16:59:34.859Z,48.88
2023-04-15T17:02:04.432Z,49.02
2023-04-15T17:04:35.411Z,49.24
2023-04-15T17:07:04.983Z,49.98
2023-04-15T17:09:33.565Z,50.14
2023-04-15T17:12:02.920Z,50.12
2023-04-15T17:14:35.142Z,50.10
2023-04-15T17:17:03.638Z,50.11
2023-04-15T17:19:34.787Z,51.17
2023-04-15T17:22:05.980Z,52.16
2023-04-15T17:24:36.641Z,52.30
2023-04-15T17:27:05.354Z,52.15
2023-04-15T17:29:33.924Z,52.93
2023-04-15T17:32:05.699Z,53.32
2023-04-15T17:34:49.729Z,54.05
2023-04-15T17:37:19.688Z,54.33
2023-04-15T17:39:48.221Z,54.99
2023-04-15T17:42:20.908Z,56.13
2023-04-15T17:44:54.992Z,55.74
2023-04-15T17:47:25.541Z,55.79
2023-04-15T17:49:54.229Z,56.20
2023-04-15T17:52:22.763Z,57.77
2023-04-15T17:54:51.241Z,58.51
2023-04-15T17:57:19.824Z,57.96
2023-04-15T17:59:48.636Z,58.01
2023-04-15T18:02:17.455Z,58.20
2023-04-15T18:04:51.542Z,59.36
2023-04-15T18:07:20.048Z,60.91
2023-04-15T18:09:50.771Z,61.63
2023-04-15T18:12:19.364Z,62.96
2023-04-15T18:14:50.207Z,63.12
2023-04-15T18:17:21.045Z,62.73
2023-04-15T18:19:49.536Z,62.70
2023-04-15T18:22:18.353Z,63.01
2023-04-15T18:24:49.949Z,62.65
2023-04-15T18:27:22.989Z,62.84
2023-04-15T18:29:51.526Z,64.20
2023-04-15T18:32:19.983Z,64.75
2023-04-15T18:34:50.885Z,65.24
2023-04-15T18:37:21.443Z,66.41
2023-04-15T18:39:52.322Z,66.85
2023-04-15T18:42:24.000Z,65.67
2023-04-15T18:44:53.526Z,65.00
2023-04-15T18:47:27.153Z,64.53
2023-04-15T18:49:55.840Z,64.22
2023-04-15T18:52:26.795Z,64.10
2023-04-15T18:54:55.271Z,64.68
2023-04-15T18:57:32.949Z,64.87
2023-04-15T19:00:03.936Z,65.29
2023-04-15T19:02:34.631Z,65.94
2023-04-15T19:05:04.731Z,66.85
2023-04-15T19:07:33.371Z,66.32
2023-04-15T19:10:03.427Z,67.08
2023-04-15T19:12:36.596Z,67.03
2023-04-15T19:15:05.380Z,67.01
2023-04-15T19:17:34.366Z,67.12
2023-04-15T19:20:13.546Z,67.49
2023-04-15T19:22:43.228Z,67.15
2023-04-15T19:25:11.786Z,67.41
2023-04-15T19:27:40.494Z,67.86
2023-04-15T19:30:09.328Z,67.88
2023-04-15T19:32:38.183Z,67.39
2023-04-15T19:35:08.728Z,66.92
2023-04-15T19:37:38.541Z,66.63
2023-04-15T19:40:08.684Z,66.70
2023-04-15T19:42:37.110Z,67.68
2023-04-15T19:45:09.551Z,67.28
2023-04-15T19:47:38.058Z,66.84
2023-04-15T19:50:11.449Z,66.56
2023-04-15T19:52:39.976Z,66.86
2023-04-15T19:55:09.003Z,68.41
2023-04-15T19:57:38.197Z,68.11
2023-04-15T20:00:07.421Z,67.39
2023-04-15T20:02:36.348Z,66.86
2023-04-15T20:05:09.839Z,66.76
2023-04-15T20:07:42.686Z,67.38
2023-04-15T20:10:14.373Z,67.26
2023-04-15T20:12:51.756Z,67.52
2023-04-15T20:15:23.976Z,68.33
2023-04-15T20:17:52.750Z,68.90
2023-04-15T20:20:26.068Z,68.76
2023-04-15T20:22:54.537Z,68.55
2023-04-15T20:25:30.091Z,68.55
2023-04-15T20:28:07.709Z,68.62
2023-04-15T20:30:37.533Z,68.96
2023-04-15T20:33:09.105Z,68.99
2023-04-15T20:35:37.779Z,68.83
2023-04-15T20:38:06.395Z,68.86
2023-04-15T20:40:37.334Z,68.54
2023-04-15T20:43:07.907Z,68.44
2023-04-15T20:45:39.380Z,68.97
2023-04-15T20:48:11.112Z,68.46
2023-04-15T20:50:43.464Z,68.75
2023-04-15T20:53:12.144Z,68.98
2023-04-15T20:55:41.399Z,69.03
2023-04-15T20:58:10.621Z,68.92
2023-04-15T21:00:40.104Z,68.45
2023-04-15T21:03:08.752Z,68.75
2023-04-15T21:05:42.943Z,69.48
2023-04-15T21:08:11.389Z,69.77
2023-04-15T21:10:40.377Z,69.68
2023-04-15T21:13:12.059Z,69.62
2023-04-15T21:15:42.856Z,69.98
2023-04-15T21:18:11.462Z,69.82
2023-04-15T21:20:42.497Z,70.28
2023-04-15T21:23:12.903Z,71.28
2023-04-15T21:25:41.732Z,72.07
2023-04-15T21:28:10.216Z,72.68
2023-04-15T21:30:43.312Z,72.93
2023-04-15T21:33:11.874Z,72.99
2023-04-15T21:35:40.556Z,73.73
2023-04-15T21:38:09.036Z,73.97
2023-04-15T21:40:40.790Z,73.92
2023-04-15T21:43:09.978Z,74.13
2023-04-15T21:45:43.740Z,74.38
2023-04-15T21:48:32.339Z,74.86
2023-04-15T21:51:01.780Z,74.59
2023-04-15T21:53:30.180Z,74.41
2023-04-15T21:55:58.626Z,75.03
2023-04-15T21:58:27.046Z,75.07
2023-04-15T22:01:00.058Z,74.70
2023-04-15T22:03:34.129Z,74.62
2023-04-15T22:06:04.558Z,74.45
2023-04-15T22:08:41.341Z,74.98
2023-04-15T22:11:26.717Z,76.00
2023-04-15T22:13:56.926Z,76.03
2023-04-15T22:16:26.755Z,75.71
2023-04-15T22:18:56.091Z,75.75
2023-04-15T22:21:24.566Z,75.54
2023-04-15T22:23:53.252Z,75.42
2023-04-15T22:26:41.843Z,75.67
2023-04-15T22:29:11.016Z,75.74
2023-04-15T22:31:39.568Z,76.25
2023-04-15T22:34:08.763Z,76.72
2023-04-15T22:36:37.233Z,77.55
2023-04-15T22:39:06.043Z,79.00
2023-04-15T22:41:34.965Z,78.34
2023-04-15T22:44:03.359Z,78.65
2023-04-15T22:46:31.945Z,78.82
2023-04-15T22:49:00.422Z,79.17
2023-04-15T22:51:28.899Z,79.20
2023-04-15T22:53:57.398Z,79.18
2023-04-15T22:56:26.029Z,79.22
2023-04-15T22:58:54.471Z,78.97
2023-04-15T23:01:23.118Z,78.55
2023-04-15T23:03:59.168Z,77.98
2023-04-15T23:06:34.096Z,77.98
2023-04-15T23:09:02.556Z,78.37
2023-04-15T23:11:31.009Z,78.94
2023-04-15T23:13:59.362Z,80.61
2023-04-15T23:16:27.808Z,81.42
2023-04-15T23:18:56.280Z,80.62
2023-04-15T23:21:26.114Z,81.45
2023-04-15T23:23:54.861Z,82.12
2023-04-15T23:26:24.132Z,81.43
2023-04-15T23:28:52.522Z,81.25
2023-04-15T23:31:25.719Z,82.11
2023-04-15T23:33:54.087Z,82.71
2023-04-15T23:36:22.561Z,82.60
2023-04-15T23:38:51.116Z,82.18
2023-04-15T23:41:19.552Z,81.93
2023-04-15T23:43:50.013Z,82.41
2023-04-15T23:46:18.405Z,81.83
2023-04-15T23:48:48.042Z,81.87
2023-04-15T23:51:16.791Z,82.07
2023-04-15T23:53:45.185Z,81.86
2023-04-15T23:56:13.619Z,82.60
2023-04-15T23:58:42.010Z,82.98
